Latest Coastal Weather Observations for Ceduna

IDS60701

Issued at 8:01 am CST Monday 27 June 2016 (issued every 10 minutes, with the page automatically refreshed every 10 minutes)

About coastal observations | Map of coastal stations | Coastal observations for SA | Marine services | Other Formats
Station Details ID: 018012 Name: CEDUNA AMO Lat: -32.13 Lon: 133.70 Height: 15.3 m
Data from the previous 72 hours. | See also: Recent months at Ceduna
Date/Time
CST
Temp
°C
Wind Pressure Rain since
9am
mm
Weather Cloud Vis
km
Sea
Height
m
Swell
Dir  Spd
kts
Gust
kts
hPa Trend Height
m
Period
s
Dir
27/08:00am 7.5 N 8 9 1023.8 - 2.0 - Partly cloudy 10 - - - -
27/07:30am 7.7 NNW 6 7 1023.6 - 2.0 - Partly cloudy 10 - - - -
27/07:00am 9.0 NNE 5 6 1023.0 - 1.8 - Partly cloudy 10 - - - -
27/06:40am 8.6 N 4 6 1022.9 - 1.8 - Partly cloudy 10 - - - -
27/06:30am 8.5 SSE 7 11 1022.9 - 1.8 - Partly cloudy 5 - - - -
27/06:20am 8.7 SW 6 13 1022.9 - 1.0 - Partly cloudy 5 - - - -
27/06:00am 7.3 N 5 6 1022.4 R 0.2 - Cloudy 10 - - - -
27/05:30am 6.7 N 6 8 1022.2 - 0.2 - Partly cloudy 10 - - - -
27/05:00am 6.9 N 5 6 1021.9 - 0.2 - Partly cloudy 10 - - - -
27/04:30am 6.3 N 6 7 1021.8 - 0.2 - Partly cloudy 10 - - - -
27/04:00am 5.1 NNW 5 5 1021.6 - 0.2 - - 10 - - - -
27/03:30am 5.5 CALM 0 0 1021.3 - 0.2 - - 10 - - - -
27/03:00am 8.4 SSW 1 3 1021.3 R 0.2 - - 10 - - - -
27/02:30am 9.7 SSW 5 6 1021.3 - 0.2 - - 10 - - - -
27/02:00am 10.3 S 7 8 1021.1 - 0.2 - - 10 - - - -
27/01:30am 11.0 SSW 8 9 1020.9 - 0.2 - - 10 - - - -
27/01:00am 11.2 SSW 7 9 1020.8 - 0.2 - Partly cloudy 10 - - - -
27/12:30am 12.6 SSW 8 10 1020.7 - 0.2 - Partly cloudy 10 - - - -
27/12:00am 11.8 SSW 7 9 1020.7 R 0.2 - Partly cloudy 10 - - - -
 
Date/Time
CST
Temp
°C
Wind Pressure Rain since
9am
mm
Weather Cloud Vis
km
Sea
Height
m
Swell
Dir  Spd
kts
Gust
kts
hPa Trend Height
m
Period
s
Dir
26/11:30pm 12.5 SSW 10 13 1020.5 - 0.2 - Partly cloudy 10 - - - -
26/11:00pm 12.5 SSW 11 15 1020.4 - 0.2 - Partly cloudy 10 - - - -
26/10:30pm 12.6 S 9 12 1020.0 - 0.2 - - 10 - - - -
26/10:00pm 12.4 SSW 10 13 1019.7 - 0.2 - - 10 - - - -
26/09:30pm 12.5 S 11 15 1019.5 - 0.2 - Partly cloudy 10 - - - -
26/09:00pm 12.8 SSW 13 16 1019.3 R 0.2 Recent precip. Partly cloudy 10 - - - -
26/08:30pm 12.6 SSW 13 19 1018.9 - 0.2 - Partly cloudy 10 - - - -
26/08:00pm 12.8 WSW 11 16 1018.6 - 0.0 - Partly cloudy 10 - - - -
26/07:30pm 11.7 WNW 12 19 1018.3 - 0.0 - - 10 - - - -
26/07:00pm 11.7 WNW 8 13 1018.3 - 0.0 - Partly cloudy 10 - - - -
26/06:30pm 12.2 NW 7 11 1018.1 - 0.0 - Partly cloudy 10 - - - -
26/06:00pm 12.9 WNW 8 12 1017.7 R 0.0 - Cloudy 10 - - - -
26/05:30pm 13.0 WNW 9 13 1017.3 - 0.0 - Partly cloudy 10 - - - -
26/05:00pm 13.2 WNW 10 14 1017.1 - 0.0 - Partly cloudy 10 - - - -
26/04:30pm 13.6 W 11 15 1016.9 - 0.0 - Partly cloudy 10 - - - -
26/04:00pm 14.3 W 14 19 1016.8 - 0.0 - Cloudy 10 - - - -
26/03:30pm 14.7 W 10 12 1016.6 - 0.0 - Partly cloudy 10 - - - -
26/03:00pm 14.9 WNW 12 17 1016.4 R 0.0 - Cloudy 10 - - - -
26/02:30pm 15.5 WNW 11 17 1016.3 - 0.0 - Partly cloudy 10 - - - -
26/02:00pm 15.0 WNW 10 13 1016.4 - 0.0 - Cloudy 10 - - - -
26/01:30pm 14.9 WNW 12 15 1016.6 - 0.0 - Cloudy 10 - - - -
26/01:00pm 15.1 WNW 11 16 1016.9 - 0.0 - Cloudy 10 - - - -
26/12:30pm 15.8 NW 12 17 1017.2 - 0.0 - Partly cloudy 10 - - - -
26/12:00pm 15.2 NW 11 15 1017.8 R 0.0 - Cloudy 10 - - - -
26/11:30am 14.6 NNW 12 15 1018.1 - 0.0 - Cloudy 10 - - - -
26/11:00am 13.3 NNW 11 15 1018.4 - 0.0 - Cloudy 10 - - - -
26/10:30am 12.9 NNW 12 15 1018.4 - 0.0 - Cloudy 10 - - - -
26/10:00am 11.8 NNW 12 15 1018.3 - 0.0 - Cloudy 10 - - - -
26/09:30am 11.3 N 10 13 1018.1 - 0.0 - Partly cloudy 10 - - - -
26/09:00am 10.5 N 8 11 1017.9 F 0.0 - Cloudy 10 - - - -
26/08:30am 9.1 N 7 9 1017.9 - 0.0 - Cloudy 10 - - - -
26/08:00am 8.1 NNE 6 7 1017.8 - 0.0 - Cloudy 10 - - - -
26/07:30am 7.0 NNE 6 7 1017.4 - 0.0 - Cloudy 10 - - - -
26/07:00am 6.0 NNE 5 6 1017.5 - 0.0 - - 10 - - - -
26/06:30am 6.3 NNE 6 7 1017.4 - 0.0 - Partly cloudy 10 - - - -
26/06:00am 6.9 NE 6 7 1017.4 R 0.0 - Partly cloudy 10 - - - -
26/05:30am 7.8 ENE 5 6 1017.1 - 0.0 - Partly cloudy 10 - - - -
26/05:00am 8.4 NE 5 7 1017.1 - 0.0 - Partly cloudy 10 - - - -
26/04:30am 9.1 NE 8 9 1016.9 - 0.0 - Partly cloudy 10 - - - -
26/04:00am 9.2 ENE 6 8 1017.0 - 0.0 - Partly cloudy 10 - - - -
26/03:30am 9.2 ENE 7 8 1016.9 - 0.0 - Cloudy 10 - - - -
26/03:00am 9.2 NE 6 7 1017.2 F 0.0 - Cloudy 10 - - - -
26/02:30am 9.3 ENE 6 7 1017.5 - 0.0 - Cloudy 10 - - - -
26/02:00am 9.4 ENE 4 5 1017.7 - 0.0 - Cloudy 10 - - - -
26/01:30am 9.8 NE 6 7 1018.0 - 0.0 - Cloudy 10 - - - -
26/01:00am 9.7 NE 6 7 1018.2 - 0.0 - Cloudy 10 - - - -
26/12:30am 9.8 NE 7 9 1018.5 - 0.0 - Cloudy 10 - - - -
26/12:00am 9.6 NE 7 8 1018.8 F 0.0 - Cloudy 10 - - - -
 
Date/Time
CST
Temp
°C
Wind Pressure Rain since
9am
mm
Weather Cloud Vis
km
Sea
Height
m
Swell
Dir  Spd
kts
Gust
kts
hPa Trend Height
m
Period
s
Dir
25/11:30pm 9.3 NE 4 5 1019.0 - 0.0 - Cloudy 10 - - - -
25/11:00pm 9.4 ENE 6 7 1019.2 - 0.0 - Cloudy 10 - - - -
25/10:30pm 9.6 ENE 6 7 1019.4 - 0.0 - Cloudy 10 - - - -
25/10:00pm 9.9 ENE 8 9 1018.9 - 0.0 - Cloudy 10 - - - -
25/09:30pm 10.2 NE 7 8 1019.7 - 0.0 - Cloudy 10 - - - -
25/09:00pm 10.0 NE 6 7 1019.5 F 0.0 - Cloudy 10 - - - -
25/08:30pm 10.2 ENE 8 9 1019.4 - 0.0 - Cloudy 10 - - - -
25/08:00pm 10.5 NE 6 7 1019.8 - 0.0 - Cloudy 10 - - - -
25/07:30pm 10.5 ENE 5 6 1020.0 - 0.0 - Cloudy 10 - - - -
25/07:00pm 11.0 NE 8 9 1019.6 - 0.0 - Cloudy 10 - - - -
25/06:30pm 11.0 ENE 7 9 1019.5 - 0.0 - Cloudy 10 - - - -
25/06:00pm 11.3 ENE 8 9 1019.5 F 0.0 - Cloudy 10 - - - -
25/05:30pm 11.7 NE 6 8 1018.9 - 0.0 - Cloudy 10 - - - -
25/05:00pm 12.2 NE 6 7 1019.1 - 0.0 - Cloudy 10 - - - -
25/04:30pm 12.7 NNE 8 10 1019.6 - 0.0 - Cloudy 10 - - - -
25/04:00pm 13.1 NNE 8 11 1019.5 - 0.0 - Cloudy 10 - - - -
25/03:30pm 13.2 NNE 9 11 1019.9 - 0.0 - Cloudy 10 - - - -
25/03:00pm 13.4 NNE 8 9 1019.6 F 0.0 - Cloudy 10 - - - -
25/02:30pm 13.5 N 6 9 1020.3 - 0.0 - Cloudy 10 - - - -
25/02:00pm 13.6 N 7 11 1020.7 - 0.0 - Cloudy 10 - - - -
25/01:30pm 13.5 NNE 7 10 1021.1 - 0.0 - Cloudy 10 - - - -
25/01:00pm 13.6 N 7 10 1021.7 - 0.0 - Cloudy 10 - - - -
25/12:30pm 13.2 N 9 12 1022.4 - 0.0 - Partly cloudy 10 - - - -
25/12:00pm 13.1 NNE 9 13 1022.9 F 0.0 - Cloudy 10 - - - -
25/11:30am 12.5 NNE 10 13 1023.3 - 0.0 - Cloudy 10 - - - -
25/11:00am 12.4 NNE 8 10 1023.6 - 0.0 - Cloudy 10 - - - -
25/10:30am 11.9 NE 9 11 1023.8 - 0.0 - Cloudy 10 - - - -
25/10:00am 11.1 NE 9 10 1023.6 - 0.0 - Cloudy 10 - - - -
25/09:30am 10.3 ENE 8 9 1023.6 - 0.0 - Cloudy 10 - - - -
25/09:00am 9.5 ENE 7 8 1023.5 F 0.0 - Cloudy 10 - - - -
25/08:30am 8.6 ENE 6 8 1023.7 - 0.0 - Cloudy 10 - - - -
25/08:00am 7.0 ENE 4 5 1023.7 - 0.0 - Partly cloudy 10 - - - -
25/07:30am 7.3 NE 4 5 1023.7 - 0.0 - Partly cloudy 10 - - - -
25/07:00am 7.1 N 5 6 1023.6 - 0.0 - Partly cloudy 10 - - - -
25/06:30am 7.8 NNE 4 7 1023.3 - 0.0 - Partly cloudy 10 - - - -
25/06:00am 7.6 NNE 7 8 1023.2 S 0.0 - Cloudy 10 - - - -
25/05:30am 7.4 NNE 6 7 1023.1 - 0.0 - Partly cloudy 10 - - - -
25/05:00am 7.3 NNE 4 6 1023.0 - 0.0 - Partly cloudy 10 - - - -
25/04:30am 6.8 NE 5 6 1023.1 - 0.0 - Partly cloudy 10 - - - -
25/04:00am 6.9 ENE 6 8 1023.1 - 0.0 - Cloudy 10 - - - -
25/03:30am 6.1 NE 3 4 1023.2 - 0.0 - Cloudy 10 - - - -
25/03:00am 5.0 NNE 4 5 1023.3 S 0.0 - Partly cloudy 10 - - - -
25/02:30am 5.1 N 3 4 1023.4 - 0.0 - Cloudy 10 - - - -
25/02:00am 5.1 NE 4 5 1023.3 - 0.0 - Partly cloudy 10 - - - -
25/01:30am 5.7 ENE 4 7 1023.4 - 0.0 - Partly cloudy 10 - - - -
25/01:00am 5.9 ENE 5 5 1023.7 - 0.0 - Partly cloudy 10 - - - -
25/12:30am 7.5 NNE 3 4 1023.7 - 0.0 - - 10 - - - -
25/12:00am 8.3 N 4 4 1023.8 S 0.0 - Mostly clear 10 - - - -
 
Date/Time
CST
Temp
°C
Wind Pressure Rain since
9am
mm
Weather Cloud Vis
km
Sea
Height
m
Swell
Dir  Spd
kts
Gust
kts
hPa Trend Height
m
Period
s
Dir
24/11:30pm 8.6 NE 7 8 1024.0 - 0.0 - Partly cloudy 10 - - - -
24/11:00pm 9.4 NE 6 7 1024.1 - 0.0 - Partly cloudy 10 - - - -
24/10:30pm 9.5 N 1 4 1024.1 - 0.0 - Partly cloudy 10 - - - -
24/10:00pm 9.1 CALM 0 0 1024.0 - 0.0 - Partly cloudy 10 - - - -
24/09:30pm 9.3 NNE 5 6 1024.0 - 0.0 - Partly cloudy 10 - - - -
24/09:00pm 8.7 N 4 5 1023.8 R 0.0 - Cloudy 10 - - - -
24/08:30pm 7.6 CALM 0 0 1023.7 - 0.0 - Partly cloudy 10 - - - -
24/08:00pm 7.5 NNE 3 4 1023.4 - 0.0 - Partly cloudy 10 - - - -
24/07:30pm 8.4 ENE 3 4 1023.3 - 0.0 - - 10 - - - -
24/07:00pm 8.5 E 5 5 1023.1 - 0.0 - - 10 - - - -
24/06:30pm 8.8 S 3 8 1022.9 - 0.0 - Partly cloudy 10 - - - -
24/06:00pm 11.0 WSW 4 4 1022.5 R 0.0 - - 10 - - - -
24/05:30pm 12.0 WSW 5 6 1022.3 - 0.0 - - 10 - - - -
24/05:00pm 13.6 WSW 5 7 1022.1 - 0.0 - Partly cloudy 10 - - - -
24/04:30pm 14.2 SW 9 12 1022.0 - 0.0 - Partly cloudy 10 - - - -
24/04:00pm 14.2 SW 8 9 1021.8 - 0.0 - Partly cloudy 10 - - - -
24/03:30pm 14.8 WSW 9 11 1021.5 - 0.0 - Partly cloudy 10 - - - -
24/03:00pm 14.4 W 8 11 1021.4 R 0.0 - Partly cloudy 10 - - - -
24/02:30pm 14.4 WSW 11 15 1021.4 - 0.0 - Partly cloudy 10 - - - -
24/02:00pm 14.1 W 8 11 1021.4 - 0.0 - Cloudy 10 - - - -
24/01:30pm 14.2 SW 10 15 1021.6 - 0.0 - Partly cloudy 10 - - - -
24/01:00pm 14.6 SW 11 15 1021.6 - 0.0 - - 10 - - - -
24/12:30pm 14.0 WSW 13 17 1021.6 - 0.0 - Partly cloudy 10 - - - -
24/12:00pm 15.0 SW 12 15 1021.8 R 0.0 - Mostly cloudy 10 - - - -
24/11:30am 14.7 W 10 14 1021.9 - 0.0 - Partly cloudy 10 - - - -
24/11:00am 14.2 WSW 13 17 1021.9 - 0.0 - - 10 - - - -
24/10:30am 14.6 SW 12 15 1021.5 - 0.0 - - 10 - - - -
24/10:00am 13.9 SW 12 15 1021.1 - 0.0 - Partly cloudy 10 - - - -
24/09:30am 13.8 SSW 11 14 1020.6 - 0.0 - Cloudy 10 - - - -
24/09:00am 13.2 SW 14 19 1020.1 R 3.2 - Mostly cloudy 10 - - - -
24/08:30am 13.2 SW 14 22 1019.8 - 3.2 - Cloudy 10 - - - -

Other Formats:

Comma delimited format used in spreadsheet applications
http://www.bom.gov.au/fwo/IDS60701/IDS60701.94653.axf

JavaScript Object Notation format (JSON) in row-major order
http://www.bom.gov.au/fwo/IDS60701/IDS60701.94653.json